sensor_id;sensor_type;location;lat;lon;timestamp;pressure;altitude;pressure_sealevel;temperature;humidity
71772;BME280;59606;52.138;5.424;2023-07-20T00:00:03;101526.31;;;17.83;84.91
71772;BME280;59606;52.138;5.424;2023-07-20T00:02:31;101524.63;;;17.82;84.69
71772;BME280;59606;52.138;5.424;2023-07-20T00:04:57;101528.31;;;17.80;84.88
71772;BME280;59606;52.138;5.424;2023-07-20T00:07:24;101529.28;;;17.79;85.03
71772;BME280;59606;52.138;5.424;2023-07-20T00:09:51;101530.34;;;17.76;84.88
71772;BME280;59606;52.138;5.424;2023-07-20T00:12:17;101525.09;;;17.76;85.60
71772;BME280;59606;52.138;5.424;2023-07-20T00:14:44;101532.34;;;17.73;85.83
71772;BME280;59606;52.138;5.424;2023-07-20T00:17:10;101534.81;;;17.63;85.75
71772;BME280;59606;52.138;5.424;2023-07-20T00:19:37;101536.22;;;17.56;85.64
71772;BME280;59606;52.138;5.424;2023-07-20T00:22:03;101531.91;;;17.55;85.75
71772;BME280;59606;52.138;5.424;2023-07-20T00:24:31;101532.97;;;17.52;85.90
71772;BME280;59606;52.138;5.424;2023-07-20T00:27:10;101535.13;;;17.47;86.04
71772;BME280;59606;52.138;5.424;2023-07-20T00:29:36;101530.34;;;17.52;86.25
71772;BME280;59606;52.138;5.424;2023-07-20T00:32:03;101525.41;;;17.48;86.34
71772;BME280;59606;52.138;5.424;2023-07-20T00:34:31;101527.22;;;17.47;86.20
71772;BME280;59606;52.138;5.424;2023-07-20T00:36:58;101528.97;;;17.47;86.03
71772;BME280;59606;52.138;5.424;2023-07-20T00:39:25;101527.31;;;17.46;86.14
71772;BME280;59606;52.138;5.424;2023-07-20T00:41:51;101528.16;;;17.46;85.90
71772;BME280;59606;52.138;5.424;2023-07-20T00:44:18;101523.00;;;17.44;85.70
71772;BME280;59606;52.138;5.424;2023-07-20T00:46:44;101526.69;;;17.42;85.24
71772;BME280;59606;52.138;5.424;2023-07-20T00:49:11;101524.50;;;17.36;85.06
71772;BME280;59606;52.138;5.424;2023-07-20T00:51:37;101528.53;;;17.29;85.38
71772;BME280;59606;52.138;5.424;2023-07-20T00:54:04;101532.56;;;17.22;85.52
71772;BME280;59606;52.138;5.424;2023-07-20T00:56:31;101530.38;;;17.15;85.80
71772;BME280;59606;52.138;5.424;2023-07-20T00:58:57;101526.91;;;17.15;85.87
71772;BME280;59606;52.138;5.424;2023-07-20T01:01:24;101529.75;;;17.12;86.09
71772;BME280;59606;52.138;5.424;2023-07-20T01:03:51;101536.28;;;17.06;86.32
71772;BME280;59606;52.138;5.424;2023-07-20T01:06:41;101535.88;;;17.00;86.48
71772;BME280;59606;52.138;5.424;2023-07-20T01:09:16;101530.09;;;16.94;86.78
71772;BME280;59606;52.138;5.424;2023-07-20T01:12:11;101538.31;;;16.90;87.29
71772;BME280;59606;52.138;5.424;2023-07-20T01:14:39;101539.38;;;16.87;87.33
71772;BME280;59606;52.138;5.424;2023-07-20T01:17:06;101536.13;;;16.84;87.32
71772;BME280;59606;52.138;5.424;2023-07-20T01:19:33;101530.44;;;16.77;87.55
71772;BME280;59606;52.138;5.424;2023-07-20T01:31:25;101535.16;;;16.59;87.91
71772;BME280;59606;52.138;5.424;2023-07-20T01:33:26;101540.63;;;16.56;88.05
71772;BME280;59606;52.138;5.424;2023-07-20T01:35:57;101540.13;;;16.51;88.12
71772;BME280;59606;52.138;5.424;2023-07-20T01:38:25;101534.31;;;16.46;88.06
71772;BME280;59606;52.138;5.424;2023-07-20T01:40:52;101538.09;;;16.42;88.22
71772;BME280;59606;52.138;5.424;2023-07-20T01:43:19;101530.41;;;16.39;88.39
71772;BME280;59606;52.138;5.424;2023-07-20T01:45:45;101539.25;;;16.38;88.49
71772;BME280;59606;52.138;5.424;2023-07-20T01:48:12;101527.16;;;16.35;88.50
71772;BME280;59606;52.138;5.424;2023-07-20T01:50:38;101531.78;;;16.32;88.52
71772;BME280;59606;52.138;5.424;2023-07-20T01:53:05;101534.63;;;16.29;88.19
71772;BME280;59606;52.138;5.424;2023-07-20T01:55:31;101540.00;;;16.27;88.24
71772;BME280;59606;52.138;5.424;2023-07-20T01:57:58;101543.66;;;16.24;88.25
71772;BME280;59606;52.138;5.424;2023-07-20T02:00:26;101548.38;;;16.19;88.62
71772;BME280;59606;52.138;5.424;2023-07-20T02:02:53;101552.16;;;16.15;88.91
71772;BME280;59606;52.138;5.424;2023-07-20T02:05:19;101549.66;;;16.14;88.72
71772;BME280;59606;52.138;5.424;2023-07-20T02:07:47;101552.47;;;16.11;88.58
71772;BME280;59606;52.138;5.424;2023-07-20T02:10:13;101538.69;;;16.07;88.86
71772;BME280;59606;52.138;5.424;2023-07-20T02:12:40;101546.59;;;16.07;88.98
71772;BME280;59606;52.138;5.424;2023-07-20T02:15:07;101544.69;;;16.09;88.81
71772;BME280;59606;52.138;5.424;2023-07-20T02:17:34;101548.06;;;16.11;89.44
71772;BME280;59606;52.138;5.424;2023-07-20T02:20:01;101545.44;;;16.11;89.34
71772;BME280;59606;52.138;5.424;2023-07-20T02:22:27;101543.66;;;16.12;89.31
71772;BME280;59606;52.138;5.424;2023-07-20T02:24:54;101541.84;;;16.12;89.46
71772;BME280;59606;52.138;5.424;2023-07-20T02:27:20;101543.75;;;16.10;89.54
71772;BME280;59606;52.138;5.424;2023-07-20T02:29:47;101541.53;;;16.04;89.57
71772;BME280;59606;52.138;5.424;2023-07-20T02:32:13;101549.72;;;15.99;89.60
71772;BME280;59606;52.138;5.424;2023-07-20T02:34:40;101545.53;;;15.97;89.38
71772;BME280;59606;52.138;5.424;2023-07-20T02:37:07;101542.97;;;15.95;89.50
71772;BME280;59606;52.138;5.424;2023-07-20T02:39:37;101549.31;;;15.93;89.46
71772;BME280;59606;52.138;5.424;2023-07-20T02:42:03;101533.72;;;15.90;89.34
71772;BME280;59606;52.138;5.424;2023-07-20T02:44:30;101541.06;;;15.85;89.03
71772;BME280;59606;52.138;5.424;2023-07-20T02:46:56;101542.94;;;15.83;88.85
71772;BME280;59606;52.138;5.424;2023-07-20T02:49:23;101544.00;;;15.80;88.77
71772;BME280;59606;52.138;5.424;2023-07-20T02:51:49;101546.06;;;15.75;88.60
71772;BME280;59606;52.138;5.424;2023-07-20T02:54:16;101547.53;;;15.66;88.91
71772;BME280;59606;52.138;5.424;2023-07-20T02:56:42;101546.84;;;15.63;89.21
71772;BME280;59606;52.138;5.424;2023-07-20T02:59:09;101551.44;;;15.59;89.58
71772;BME280;59606;52.138;5.424;2023-07-20T03:01:35;101561.09;;;15.59;89.33
71772;BME280;59606;52.138;5.424;2023-07-20T03:04:02;101568.34;;;15.55;89.25
71772;BME280;59606;52.138;5.424;2023-07-20T03:06:30;101572.00;;;15.52;89.20
71772;BME280;59606;52.138;5.424;2023-07-20T03:08:57;101577.47;;;15.49;89.01
71772;BME280;59606;52.138;5.424;2023-07-20T03:11:24;101580.19;;;15.48;89.25
71772;BME280;59606;52.138;5.424;2023-07-20T03:13:50;101578.78;;;15.42;88.88
71772;BME280;59606;52.138;5.424;2023-07-20T03:16:18;101586.00;;;15.39;89.19
71772;BME280;59606;52.138;5.424;2023-07-20T03:18:45;101587.25;;;15.33;89.19
71772;BME280;59606;52.138;5.424;2023-07-20T03:21:12;101589.31;;;15.28;89.75
71772;BME280;59606;52.138;5.424;2023-07-20T03:23:40;101592.25;;;15.23;89.40
71772;BME280;59606;52.138;5.424;2023-07-20T03:26:08;101594.94;;;15.22;89.48
71772;BME280;59606;52.138;5.424;2023-07-20T03:28:35;101591.59;;;15.20;89.70
71772;BME280;59606;52.138;5.424;2023-07-20T03:31:02;101593.47;;;15.18;89.99
71772;BME280;59606;52.138;5.424;2023-07-20T03:33:30;101593.47;;;15.18;89.81
71772;BME280;59606;52.138;5.424;2023-07-20T03:35:58;101582.94;;;15.18;89.27
71772;BME280;59606;52.138;5.424;2023-07-20T03:38:25;101589.03;;;15.18;89.41
71772;BME280;59606;52.138;5.424;2023-07-20T03:41:00;101590.09;;;15.16;89.20
71772;BME280;59606;52.138;5.424;2023-07-20T03:43:27;101589.53;;;15.11;89.35
71772;BME280;59606;52.138;5.424;2023-07-20T03:45:55;101591.38;;;15.08;89.84
71772;BME280;59606;52.138;5.424;2023-07-20T03:48:23;101589.81;;;15.06;89.71
71772;BME280;59606;52.138;5.424;2023-07-20T03:50:51;101591.78;;;15.02;89.74
71772;BME280;59606;52.138;5.424;2023-07-20T03:53:18;101592.06;;;14.98;89.77
71772;BME280;59606;52.138;5.424;2023-07-20T03:55:51;101595.81;;;14.94;90.03
71772;BME280;59606;52.138;5.424;2023-07-20T03:58:19;101595.16;;;14.90;90.17
71772;BME280;59606;52.138;5.424;2023-07-20T04:00:50;101591.97;;;14.85;90.38
71772;BME280;59606;52.138;5.424;2023-07-20T04:03:21;101591.97;;;14.85;90.49
71772;BME280;59606;52.138;5.424;2023-07-20T04:05:49;101595.53;;;14.84;90.71
71772;BME280;59606;52.138;5.424;2023-07-20T04:08:16;101596.38;;;14.84;90.60
71772;BME280;59606;52.138;5.424;2023-07-20T04:10:45;101601.63;;;14.84;90.68
71772;BME280;59606;52.138;5.424;2023-07-20T04:13:12;101614.66;;;14.86;91.05
71772;BME280;59606;52.138;5.424;2023-07-20T04:15:38;101609.31;;;14.88;91.47
71772;BME280;59606;52.138;5.424;2023-07-20T04:18:05;101605.00;;;14.87;91.63
71772;BME280;59606;52.138;5.424;2023-07-20T04:20:32;101609.88;;;14.93;92.00
71772;BME280;59606;52.138;5.424;2023-07-20T04:22:58;101607.81;;;14.98;92.13
71772;BME280;59606;52.138;5.424;2023-07-20T04:25:25;101614.00;;;14.97;91.76
71772;BME280;59606;52.138;5.424;2023-07-20T04:27:52;101617.34;;;14.99;92.14
71772;BME280;59606;52.138;5.424;2023-07-20T04:30:20;101618.28;;;14.98;92.23
71772;BME280;59606;52.138;5.424;2023-07-20T04:32:48;101611.06;;;15.01;92.09
71772;BME280;59606;52.138;5.424;2023-07-20T04:36:02;101612.03;;;15.00;92.22
71772;BME280;59606;52.138;5.424;2023-07-20T04:38:04;101614.94;;;14.96;91.97
71772;BME280;59606;52.138;5.424;2023-07-20T04:40:31;101621.28;;;14.92;91.89
71772;BME280;59606;52.138;5.424;2023-07-20T04:42:57;101624.75;;;14.92;92.15
71772;BME280;59606;52.138;5.424;2023-07-20T04:45:24;101625.81;;;14.90;91.99
71772;BME280;59606;52.138;5.424;2023-07-20T04:47:50;101631.97;;;14.89;92.23
71772;BME280;59606;52.138;5.424;2023-07-20T04:50:17;101633.03;;;14.86;92.26
71772;BME280;59606;52.138;5.424;2023-07-20T04:52:45;101631.31;;;14.85;92.16
71772;BME280;59606;52.138;5.424;2023-07-20T04:55:12;101632.19;;;14.85;91.79
71772;BME280;59606;52.138;5.424;2023-07-20T04:57:39;101631.59;;;14.80;91.92
71772;BME280;59606;52.138;5.424;2023-07-20T05:00:06;101628.97;;;14.80;92.34
71772;BME280;59606;52.138;5.424;2023-07-20T05:02:33;101631.31;;;14.85;92.54
71772;BME280;59606;52.138;5.424;2023-07-20T05:05:00;101623.84;;;14.93;92.41
71772;BME280;59606;52.138;5.424;2023-07-20T05:07:27;101633.84;;;15.01;92.50
71772;BME280;59606;52.138;5.424;2023-07-20T05:09:54;101635.47;;;15.03;92.35
71772;BME280;59606;52.138;5.424;2023-07-20T05:12:20;101629.19;;;15.06;92.75
71772;BME280;59606;52.138;5.424;2023-07-20T05:14:47;101629.66;;;15.13;92.62
71772;BME280;59606;52.138;5.424;2023-07-20T05:17:13;101631.81;;;15.20;92.56
71772;BME280;59606;52.138;5.424;2023-07-20T05:19:40;101629.81;;;15.24;92.43
71772;BME280;59606;52.138;5.424;2023-07-20T05:22:10;101630.94;;;15.34;92.54
71772;BME280;59606;52.138;5.424;2023-07-20T05:24:38;101634.22;;;15.38;92.27
71772;BME280;59606;52.138;5.424;2023-07-20T05:27:05;101627.94;;;15.40;92.42
71772;BME280;59606;52.138;5.424;2023-07-20T05:29:31;101629.63;;;15.41;92.46
71772;BME280;59606;52.138;5.424;2023-07-20T05:31:59;101631.03;;;15.47;92.45
71772;BME280;59606;52.138;5.424;2023-07-20T05:34:26;101635.03;;;15.52;92.10
71772;BME280;59606;52.138;5.424;2023-07-20T05:36:52;101634.75;;;15.57;92.31
71772;BME280;59606;52.138;5.424;2023-07-20T05:39:19;101632.47;;;15.65;92.32
71772;BME280;59606;52.138;5.424;2023-07-20T05:41:45;101639.81;;;15.74;92.30
71772;BME280;59606;52.138;5.424;2023-07-20T05:44:12;101639.44;;;15.81;92.07
71772;BME280;59606;52.138;5.424;2023-07-20T05:46:38;101635.66;;;15.85;91.32
71772;BME280;59606;52.138;5.424;2023-07-20T05:49:20;101633.28;;;15.94;91.99
71772;BME280;59606;52.138;5.424;2023-07-20T05:51:47;101626.47;;;16.05;91.19
71772;BME280;59606;52.138;5.424;2023-07-20T05:54:14;101622.72;;;16.09;91.71
71772;BME280;59606;52.138;5.424;2023-07-20T05:56:40;101628.84;;;16.22;90.64
71772;BME280;59606;52.138;5.424;2023-07-20T05:59:07;101629.00;;;16.33;90.79
71772;BME280;59606;52.138;5.424;2023-07-20T06:01:33;101632.25;;;16.49;89.34
71772;BME280;59606;52.138;5.424;2023-07-20T06:04:00;101631.78;;;16.57;88.08
71772;BME280;59606;52.138;5.424;2023-07-20T06:06:29;101626.19;;;16.62;87.25
71772;BME280;59606;52.138;5.424;2023-07-20T06:08:55;101631.81;;;16.83;87.54
71772;BME280;59606;52.138;5.424;2023-07-20T06:11:22;101633.91;;;17.16;86.47
71772;BME280;59606;52.138;5.424;2023-07-20T06:13:48;101636.47;;;17.54;84.13
71772;BME280;59606;52.138;5.424;2023-07-20T06:16:15;101645.28;;;18.03;82.61
71772;BME280;59606;52.138;5.424;2023-07-20T06:18:43;101640.97;;;18.37;80.34
71772;BME280;59606;52.138;5.424;2023-07-20T06:21:11;101643.91;;;17.97;79.04
71772;BME280;59606;52.138;5.424;2023-07-20T06:23:38;101649.75;;;17.53;81.14
71772;BME280;59606;52.138;5.424;2023-07-20T06:26:07;101642.59;;;17.42;82.70
71772;BME280;59606;52.138;5.424;2023-07-20T06:28:34;101641.13;;;17.38;83.14
71772;BME280;59606;52.138;5.424;2023-07-20T06:31:01;101648.72;;;17.30;81.65
71772;BME280;59606;52.138;5.424;2023-07-20T06:33:29;101648.53;;;17.20;82.58
71772;BME280;59606;52.138;5.424;2023-07-20T06:35:56;101651.47;;;17.15;80.49
71772;BME280;59606;52.138;5.424;2023-07-20T06:38:23;101648.97;;;17.14;81.05
71772;BME280;59606;52.138;5.424;2023-07-20T06:40:52;101651.16;;;17.20;81.30
71772;BME280;59606;52.138;5.424;2023-07-20T06:43:19;101646.41;;;17.25;81.00
71772;BME280;59606;52.138;5.424;2023-07-20T06:45:52;101655.50;;;17.21;80.63
71772;BME280;59606;52.138;5.424;2023-07-20T06:48:21;101660.44;;;17.13;81.50
71772;BME280;59606;52.138;5.424;2023-07-20T06:50:48;101660.34;;;17.14;81.87
71772;BME280;59606;52.138;5.424;2023-07-20T06:53:14;101661.69;;;17.20;81.44
71772;BME280;59606;52.138;5.424;2023-07-20T06:55:44;101664.97;;;17.11;81.37
71772;BME280;59606;52.138;5.424;2023-07-20T06:58:11;101664.56;;;17.04;81.19
71772;BME280;59606;52.138;5.424;2023-07-20T07:00:38;101670.13;;;17.12;82.00
71772;BME280;59606;52.138;5.424;2023-07-20T07:03:04;101668.13;;;17.16;81.30
71772;BME280;59606;52.138;5.424;2023-07-20T07:05:32;101668.13;;;17.16;80.36
71772;BME280;59606;52.138;5.424;2023-07-20T07:08:04;101672.13;;;17.22;80.31
71772;BME280;59606;52.138;5.424;2023-07-20T07:10:31;101665.38;;;17.30;80.39
71772;BME280;59606;52.138;5.424;2023-07-20T07:12:58;101673.81;;;17.35;79.64
71772;BME280;59606;52.138;5.424;2023-07-20T07:15:24;101668.53;;;17.35;79.63
71772;BME280;59606;52.138;5.424;2023-07-20T07:17:51;101669.69;;;17.44;79.45
71772;BME280;59606;52.138;5.424;2023-07-20T07:20:17;101665.25;;;17.57;79.89
71772;BME280;59606;52.138;5.424;2023-07-20T07:22:47;101661.91;;;17.66;78.94
71772;BME280;59606;52.138;5.424;2023-07-20T07:25:14;101663.84;;;17.77;78.17
71772;BME280;59606;52.138;5.424;2023-07-20T07:27:48;101665.09;;;17.84;77.33
71772;BME280;59606;52.138;5.424;2023-07-20T07:30:14;101670.13;;;17.87;76.70
71772;BME280;59606;52.138;5.424;2023-07-20T07:32:41;101672.44;;;17.92;75.77
71772;BME280;59606;52.138;5.424;2023-07-20T07:35:08;101675.09;;;18.03;79.13
71772;BME280;59606;52.138;5.424;2023-07-20T07:37:35;101671.97;;;17.98;76.08
71772;BME280;59606;52.138;5.424;2023-07-20T07:40:22;101678.13;;;17.86;75.91
71772;BME280;59606;52.138;5.424;2023-07-20T07:42:49;101672.69;;;17.76;76.62
71772;BME280;59606;52.138;5.424;2023-07-20T07:45:15;101680.16;;;17.70;75.62
71772;BME280;59606;52.138;5.424;2023-07-20T07:47:43;101673.53;;;17.64;75.91
71772;BME280;59606;52.138;5.424;2023-07-20T07:50:10;101686.53;;;17.54;74.45
71772;BME280;59606;52.138;5.424;2023-07-20T07:52:36;101677.47;;;17.46;75.33
71772;BME280;59606;52.138;5.424;2023-07-20T07:55:04;101680.31;;;17.42;75.57
71772;BME280;59606;52.138;5.424;2023-07-20T07:57:31;101675.13;;;17.54;76.25
71772;BME280;59606;52.138;5.424;2023-07-20T07:59:57;101673.44;;;17.65;76.76
71772;BME280;59606;52.138;5.424;2023-07-20T08:02:24;101682.56;;;17.85;74.51
71772;BME280;59606;52.138;5.424;2023-07-20T08:04:50;101680.59;;;18.00;70.94
71772;BME280;59606;52.138;5.424;2023-07-20T08:07:19;101679.44;;;18.04;71.26
71772;BME280;59606;52.138;5.424;2023-07-20T08:09:45;101672.00;;;18.33;73.72
71772;BME280;59606;52.138;5.424;2023-07-20T08:12:12;101673.00;;;18.44;70.98
71772;BME280;59606;52.138;5.424;2023-07-20T08:14:40;101676.78;;;18.52;69.34
71772;BME280;59606;52.138;5.424;2023-07-20T08:17:06;101661.47;;;18.69;69.02
71772;BME280;59606;52.138;5.424;2023-07-20T08:19:33;101660.22;;;18.86;68.23
71772;BME280;59606;52.138;5.424;2023-07-20T08:22:00;101662.63;;;18.89;67.58
71772;BME280;59606;52.138;5.424;2023-07-20T08:24:26;101658.63;;;18.94;68.36
71772;BME280;59606;52.138;5.424;2023-07-20T08:26:53;101658.91;;;19.02;63.92
71772;BME280;59606;52.138;5.424;2023-07-20T08:29:19;101661.53;;;19.02;64.16
71772;BME280;59606;52.138;5.424;2023-07-20T08:31:46;101668.50;;;19.03;64.59
71772;BME280;59606;52.138;5.424;2023-07-20T08:34:13;101669.69;;;19.11;64.50
71772;BME280;59606;52.138;5.424;2023-07-20T08:36:55;101667.31;;;19.19;61.04
71772;BME280;59606;52.138;5.424;2023-07-20T08:39:22;101668.63;;;19.36;64.02
71772;BME280;59606;52.138;5.424;2023-07-20T08:41:49;101676.91;;;19.53;62.69
71772;BME280;59606;52.138;5.424;2023-07-20T08:44:16;101675.22;;;19.41;59.14
71772;BME280;59606;52.138;5.424;2023-07-20T08:46:44;101680.88;;;19.37;58.88
71772;BME280;59606;52.138;5.424;2023-07-20T08:49:11;101674.03;;;19.23;59.74
71772;BME280;59606;52.138;5.424;2023-07-20T08:51:38;101671.03;;;19.16;59.62
71772;BME280;59606;52.138;5.424;2023-07-20T08:54:06;101676.19;;;19.06;59.86
71772;BME280;59606;52.138;5.424;2023-07-20T08:56:34;101671.13;;;18.92;59.53
71772;BME280;59606;52.138;5.424;2023-07-20T08:59:01;101671.97;;;18.81;59.64
71772;BME280;59606;52.138;5.424;2023-07-20T09:01:28;101668.38;;;18.94;62.16
71772;BME280;59606;52.138;5.424;2023-07-20T09:03:56;101679.44;;;19.21;60.37
71772;BME280;59606;52.138;5.424;2023-07-20T09:06:23;101674.16;;;19.44;60.07
71772;BME280;59606;52.138;5.424;2023-07-20T09:08:52;101672.59;;;19.64;57.96
71772;BME280;59606;52.138;5.424;2023-07-20T09:11:18;101667.91;;;19.78;58.07
71772;BME280;59606;52.138;5.424;2023-07-20T09:13:45;101667.75;;;19.80;55.84
71772;BME280;59606;52.138;5.424;2023-07-20T09:16:13;101668.09;;;19.87;56.91
71772;BME280;59606;52.138;5.424;2023-07-20T09:18:41;101666.34;;;19.76;58.20
71772;BME280;59606;52.138;5.424;2023-07-20T09:21:08;101665.59;;;19.63;56.84
71772;BME280;59606;52.138;5.424;2023-07-20T09:23:36;101669.94;;;19.52;57.61
71772;BME280;59606;52.138;5.424;2023-07-20T09:26:13;101668.16;;;19.42;57.06
71772;BME280;59606;52.138;5.424;2023-07-20T09:29:05;101670.69;;;19.32;56.63
71772;BME280;59606;52.138;5.424;2023-07-20T09:31:34;101666.34;;;19.20;54.76
71772;BME280;59606;52.138;5.424;2023-07-20T09:34:04;101665.50;;;19.19;54.53
71772;BME280;59606;52.138;5.424;2023-07-20T09:36:36;101672.59;;;19.30;55.75
71772;BME280;59606;52.138;5.424;2023-07-20T09:39:05;101660.44;;;19.61;51.36
71772;BME280;59606;52.138;5.424;2023-07-20T09:41:41;101661.25;;;19.95;50.58
71772;BME280;59606;52.138;5.424;2023-07-20T09:44:14;101656.56;;;20.20;52.87
71772;BME280;59606;52.138;5.424;2023-07-20T09:46:48;101663.06;;;20.48;51.64
71772;BME280;59606;52.138;5.424;2023-07-20T09:49:18;101661.91;;;20.62;51.23
71772;BME280;59606;52.138;5.424;2023-07-20T09:51:48;101662.78;;;20.83;51.99
71772;BME280;59606;52.138;5.424;2023-07-20T09:54:15;101657.31;;;20.85;50.90
71772;BME280;59606;52.138;5.424;2023-07-20T09:56:43;101652.88;;;20.85;51.25
71772;BME280;59606;52.138;5.424;2023-07-20T09:59:10;101647.25;;;21.00;51.22
71772;BME280;59606;52.138;5.424;2023-07-20T10:01:40;101653.16;;;21.13;51.95
71772;BME280;59606;52.138;5.424;2023-07-20T10:04:09;101642.03;;;21.29;50.55
71772;BME280;59606;52.138;5.424;2023-07-20T10:06:39;101652.91;;;21.47;50.62
71772;BME280;59606;52.138;5.424;2023-07-20T10:09:10;101649.97;;;21.59;48.13
71772;BME280;59606;52.138;5.424;2023-07-20T10:11:43;101652.63;;;21.59;46.69
71772;BME280;59606;52.138;5.424;2023-07-20T10:14:12;101650.53;;;21.53;45.75
71772;BME280;59606;52.138;5.424;2023-07-20T10:16:50;101644.38;;;21.22;45.75
71772;BME280;59606;52.138;5.424;2023-07-20T10:19:35;101652.81;;;20.97;47.75
71772;BME280;59606;52.138;5.424;2023-07-20T10:22:19;101649.97;;;20.67;47.29
71772;BME280;59606;52.138;5.424;2023-07-20T10:24:50;101646.56;;;20.56;47.92
71772;BME280;59606;52.138;5.424;2023-07-20T10:27:20;101649.97;;;20.67;46.33
71772;BME280;59606;52.138;5.424;2023-07-20T10:29:48;101642.59;;;20.92;49.88
71772;BME280;59606;52.138;5.424;2023-07-20T10:32:15;101642.00;;;21.09;44.50
71772;BME280;59606;52.138;5.424;2023-07-20T10:34:41;101640.91;;;21.22;46.06
71772;BME280;59606;52.138;5.424;2023-07-20T10:37:08;101637.56;;;21.19;46.05
71772;BME280;59606;52.138;5.424;2023-07-20T10:39:35;101637.53;;;21.10;45.46
71772;BME280;59606;52.138;5.424;2023-07-20T10:44:29;101636.88;;;21.27;46.21
71772;BME280;59606;52.138;5.424;2023-07-20T10:47:01;101638.22;;;21.42;47.39
71772;BME280;59606;52.138;5.424;2023-07-20T10:49:33;101638.38;;;21.51;47.14
71772;BME280;59606;52.138;5.424;2023-07-20T10:52:00;101628.22;;;21.65;45.98
71772;BME280;59606;52.138;5.424;2023-07-20T10:56:58;101627.69;;;21.91;45.84
71772;BME280;59606;52.138;5.424;2023-07-20T10:59:46;101624.78;;;21.94;44.94
71772;BME280;59606;52.138;5.424;2023-07-20T11:02:18;101629.53;;;22.10;46.70
71772;BME280;59606;52.138;5.424;2023-07-20T11:04:47;101628.03;;;22.17;42.93
71772;BME280;59606;52.138;5.424;2023-07-20T11:07:37;101612.06;;;22.07;44.27
71772;BME280;59606;52.138;5.424;2023-07-20T11:10:14;101620.03;;;21.98;45.67
71772;BME280;59606;52.138;5.424;2023-07-20T11:18:28;101609.38;;;22.56;43.74
71772;BME280;59606;52.138;5.424;2023-07-20T11:20:58;101602.09;;;22.58;42.37
71772;BME280;59606;52.138;5.424;2023-07-20T11:23:24;101608.69;;;22.54;42.95
71772;BME280;59606;52.138;5.424;2023-07-20T11:25:52;101609.53;;;22.45;41.51
71772;BME280;59606;52.138;5.424;2023-07-20T11:28:18;101603.81;;;22.40;41.76
71772;BME280;59606;52.138;5.424;2023-07-20T11:30:45;101603.69;;;22.41;42.17
71772;BME280;59606;52.138;5.424;2023-07-20T11:33:17;101595.25;;;22.55;44.15
71772;BME280;59606;52.138;5.424;2023-07-20T11:35:45;101593.00;;;22.61;43.78
71772;BME280;59606;52.138;5.424;2023-07-20T11:38:16;101595.69;;;22.61;40.90
71772;BME280;59606;52.138;5.424;2023-07-20T11:40:45;101592.13;;;22.70;41.60
71772;BME280;59606;52.138;5.424;2023-07-20T11:43:13;101587.19;;;22.85;39.08
71772;BME280;59606;52.138;5.424;2023-07-20T11:45:43;101583.84;;;22.82;41.63
71772;BME280;59606;52.138;5.424;2023-07-20T11:48:17;101590.53;;;22.96;39.48
71772;BME280;59606;52.138;5.424;2023-07-20T11:50:44;101594.09;;;23.15;38.94
71772;BME280;59606;52.138;5.424;2023-07-20T11:53:11;101585.38;;;23.22;39.30
71772;BME280;59606;52.138;5.424;2023-07-20T11:55:39;101588.28;;;23.29;37.68
71772;BME280;59606;52.138;5.424;2023-07-20T11:58:08;101582.88;;;23.21;39.40
71772;BME280;59606;52.138;5.424;2023-07-20T12:00:36;101580.34;;;23.19;39.35
71772;BME280;59606;52.138;5.424;2023-07-20T12:03:05;101582.81;;;23.03;38.37
71772;BME280;59606;52.138;5.424;2023-07-20T12:05:33;101586.41;;;23.12;40.50
71772;BME280;59606;52.138;5.424;2023-07-20T12:08:21;101575.63;;;23.13;40.01
71772;BME280;59606;52.138;5.424;2023-07-20T12:10:48;101581.69;;;23.05;40.25
71772;BME280;59606;52.138;5.424;2023-07-20T12:13:15;101576.34;;;23.05;40.22
71772;BME280;59606;52.138;5.424;2023-07-20T12:15:41;101576.63;;;23.30;38.92
71772;BME280;59606;52.138;5.424;2023-07-20T12:18:09;101570.38;;;23.49;39.82
71772;BME280;59606;52.138;5.424;2023-07-20T12:20:37;101561.69;;;23.74;40.67
71772;BME280;59606;52.138;5.424;2023-07-20T12:23:12;101569.72;;;23.83;39.12
71772;BME280;59606;52.138;5.424;2023-07-20T12:25:42;101561.69;;;23.74;41.46
71772;BME280;59606;52.138;5.424;2023-07-20T12:28:11;101569.91;;;23.53;39.91
71772;BME280;59606;52.138;5.424;2023-07-20T12:30:38;101570.19;;;23.33;40.06
71772;BME280;59606;52.138;5.424;2023-07-20T12:33:05;101571.34;;;23.02;40.73
71772;BME280;59606;52.138;5.424;2023-07-20T12:35:32;101574.78;;;22.75;42.55
71772;BME280;59606;52.138;5.424;2023-07-20T12:37:59;101566.59;;;22.59;43.56
71772;BME280;59606;52.138;5.424;2023-07-20T12:40:26;101569.97;;;22.51;43.15
71772;BME280;59606;52.138;5.424;2023-07-20T12:42:53;101560.16;;;22.62;42.97
71772;BME280;59606;52.138;5.424;2023-07-20T12:45:20;101559.34;;;22.89;43.45
71772;BME280;59606;52.138;5.424;2023-07-20T12:47:47;101570.66;;;23.00;41.19
71772;BME280;59606;52.138;5.424;2023-07-20T12:50:14;101563.28;;;22.85;41.97
71772;BME280;59606;52.138;5.424;2023-07-20T12:52:41;101566.28;;;22.72;42.45
71772;BME280;59606;52.138;5.424;2023-07-20T12:55:09;101560.84;;;22.64;42.91
71772;BME280;59606;52.138;5.424;2023-07-20T12:57:36;101563.19;;;22.67;43.44
71772;BME280;59606;52.138;5.424;2023-07-20T13:00:04;101559.41;;;22.69;44.06
71772;BME280;59606;52.138;5.424;2023-07-20T13:02:32;101559.56;;;22.68;43.16
71772;BME280;59606;52.138;5.424;2023-07-20T13:04:59;101555.22;;;22.67;44.98
71772;BME280;59606;52.138;5.424;2023-07-20T13:07:31;101557.59;;;22.70;43.24
71772;BME280;59606;52.138;5.424;2023-07-20T13:10:02;101554.81;;;22.71;43.72
71772;BME280;59606;52.138;5.424;2023-07-20T13:12:32;101555.94;;;22.69;42.69
71772;BME280;59606;52.138;5.424;2023-07-20T13:15:04;101555.22;;;22.67;43.91